sensor_id;sensor_type;location;lat;lon;timestamp;P1;durP1;ratioP1;P2;durP2;ratioP2
19301;SDS011;9785;59.362;12.152;2023-08-12T00:02:02;3.97;;;1.30;;
19301;SDS011;9785;59.362;12.152;2023-08-12T00:04:32;4.33;;;1.53;;
19301;SDS011;9785;59.362;12.152;2023-08-12T00:07:01;5.17;;;1.30;;
19301;SDS011;9785;59.362;12.152;2023-08-12T00:09:30;3.43;;;1.10;;
19301;SDS011;9785;59.362;12.152;2023-08-12T00:11:59;3.63;;;1.07;;
19301;SDS011;9785;59.362;12.152;2023-08-12T00:14:27;3.50;;;1.10;;
19301;SDS011;9785;59.362;12.152;2023-08-12T00:16:56;5.30;;;1.20;;
19301;SDS011;9785;59.362;12.152;2023-08-12T00:19:25;3.23;;;1.27;;
19301;SDS011;9785;59.362;12.152;2023-08-12T00:21:55;5.93;;;1.43;;
19301;SDS011;9785;59.362;12.152;2023-08-12T00:24:23;3.10;;;1.20;;
19301;SDS011;9785;59.362;12.152;2023-08-12T00:26:52;3.30;;;1.40;;
19301;SDS011;9785;59.362;12.152;2023-08-12T00:29:20;5.07;;;1.20;;
19301;SDS011;9785;59.362;12.152;2023-08-12T00:31:49;6.83;;;1.73;;
19301;SDS011;9785;59.362;12.152;2023-08-12T00:34:18;3.43;;;1.47;;
19301;SDS011;9785;59.362;12.152;2023-08-12T00:36:47;5.60;;;1.10;;
19301;SDS011;9785;59.362;12.152;2023-08-12T00:39:17;2.40;;;1.10;;
19301;SDS011;9785;59.362;12.152;2023-08-12T00:41:46;6.00;;;1.40;;
19301;SDS011;9785;59.362;12.152;2023-08-12T00:44:14;5.30;;;1.67;;
19301;SDS011;9785;59.362;12.152;2023-08-12T00:46:43;4.97;;;1.03;;
19301;SDS011;9785;59.362;12.152;2023-08-12T00:49:12;4.80;;;1.23;;
19301;SDS011;9785;59.362;12.152;2023-08-12T00:51:41;7.37;;;1.10;;
19301;SDS011;9785;59.362;12.152;2023-08-12T00:54:13;3.70;;;1.20;;
19301;SDS011;9785;59.362;12.152;2023-08-12T00:56:43;3.77;;;1.43;;
19301;SDS011;9785;59.362;12.152;2023-08-12T00:59:12;3.03;;;1.20;;
19301;SDS011;9785;59.362;12.152;2023-08-12T01:01:41;1.50;;;1.30;;
19301;SDS011;9785;59.362;12.152;2023-08-12T01:04:09;7.23;;;1.20;;
19301;SDS011;9785;59.362;12.152;2023-08-12T01:06:38;2.53;;;1.20;;
19301;SDS011;9785;59.362;12.152;2023-08-12T01:09:07;3.33;;;1.40;;
19301;SDS011;9785;59.362;12.152;2023-08-12T01:11:36;5.27;;;1.20;;
19301;SDS011;9785;59.362;12.152;2023-08-12T01:14:12;3.77;;;1.70;;
19301;SDS011;9785;59.362;12.152;2023-08-12T01:16:43;4.70;;;1.30;;
19301;SDS011;9785;59.362;12.152;2023-08-12T01:19:16;5.53;;;1.73;;
19301;SDS011;9785;59.362;12.152;2023-08-12T01:21:50;4.97;;;1.50;;
19301;SDS011;9785;59.362;12.152;2023-08-12T01:24:24;2.87;;;1.50;;
19301;SDS011;9785;59.362;12.152;2023-08-12T01:26:53;3.97;;;1.40;;
19301;SDS011;9785;59.362;12.152;2023-08-12T01:29:22;1.90;;;1.40;;
19301;SDS011;9785;59.362;12.152;2023-08-12T01:31:51;2.73;;;1.43;;
19301;SDS011;9785;59.362;12.152;2023-08-12T01:34:24;1.43;;;1.30;;
19301;SDS011;9785;59.362;12.152;2023-08-12T01:36:55;6.93;;;1.67;;
19301;SDS011;9785;59.362;12.152;2023-08-12T01:39:26;3.93;;;1.63;;
19301;SDS011;9785;59.362;12.152;2023-08-12T01:41:54;6.07;;;1.40;;
19301;SDS011;9785;59.362;12.152;2023-08-12T01:44:24;6.47;;;1.53;;
19301;SDS011;9785;59.362;12.152;2023-08-12T01:46:52;6.67;;;1.90;;
19301;SDS011;9785;59.362;12.152;2023-08-12T01:49:22;4.47;;;1.50;;
19301;SDS011;9785;59.362;12.152;2023-08-12T01:51:51;3.53;;;1.50;;
19301;SDS011;9785;59.362;12.152;2023-08-12T01:54:20;7.13;;;1.60;;
19301;SDS011;9785;59.362;12.152;2023-08-12T01:56:49;6.73;;;1.40;;
19301;SDS011;9785;59.362;12.152;2023-08-12T01:59:18;4.80;;;1.63;;
19301;SDS011;9785;59.362;12.152;2023-08-12T02:01:47;3.10;;;1.60;;
19301;SDS011;9785;59.362;12.152;2023-08-12T02:04:15;4.20;;;1.70;;
19301;SDS011;9785;59.362;12.152;2023-08-12T02:06:44;2.70;;;1.53;;
19301;SDS011;9785;59.362;12.152;2023-08-12T02:09:13;3.17;;;1.60;;
19301;SDS011;9785;59.362;12.152;2023-08-12T02:11:41;3.97;;;1.80;;
19301;SDS011;9785;59.362;12.152;2023-08-12T02:14:11;5.40;;;1.87;;
19301;SDS011;9785;59.362;12.152;2023-08-12T02:16:40;5.70;;;2.00;;
19301;SDS011;9785;59.362;12.152;2023-08-12T02:19:08;3.23;;;1.77;;
19301;SDS011;9785;59.362;12.152;2023-08-12T02:21:37;6.90;;;1.50;;
19301;SDS011;9785;59.362;12.152;2023-08-12T02:24:06;3.97;;;1.73;;
19301;SDS011;9785;59.362;12.152;2023-08-12T02:26:37;4.80;;;1.70;;
19301;SDS011;9785;59.362;12.152;2023-08-12T02:29:05;5.37;;;1.80;;
19301;SDS011;9785;59.362;12.152;2023-08-12T02:31:35;4.63;;;1.70;;
19301;SDS011;9785;59.362;12.152;2023-08-12T02:34:04;2.30;;;1.77;;
19301;SDS011;9785;59.362;12.152;2023-08-12T02:36:33;6.77;;;2.03;;
19301;SDS011;9785;59.362;12.152;2023-08-12T02:39:01;2.67;;;1.80;;
19301;SDS011;9785;59.362;12.152;2023-08-12T02:41:31;2.63;;;1.90;;
19301;SDS011;9785;59.362;12.152;2023-08-12T02:43:59;6.77;;;1.87;;
19301;SDS011;9785;59.362;12.152;2023-08-12T02:46:28;6.30;;;2.00;;
19301;SDS011;9785;59.362;12.152;2023-08-12T02:48:58;8.23;;;2.10;;
19301;SDS011;9785;59.362;12.152;2023-08-12T02:51:27;4.17;;;2.17;;
19301;SDS011;9785;59.362;12.152;2023-08-12T02:53:56;2.03;;;1.67;;
19301;SDS011;9785;59.362;12.152;2023-08-12T02:56:24;3.37;;;2.13;;
19301;SDS011;9785;59.362;12.152;2023-08-12T02:58:53;2.80;;;2.00;;
19301;SDS011;9785;59.362;12.152;2023-08-12T03:01:22;6.43;;;2.33;;
19301;SDS011;9785;59.362;12.152;2023-08-12T03:03:51;6.63;;;2.47;;
19301;SDS011;9785;59.362;12.152;2023-08-12T03:06:21;9.87;;;2.67;;
19301;SDS011;9785;59.362;12.152;2023-08-12T03:08:50;4.53;;;2.30;;
19301;SDS011;9785;59.362;12.152;2023-08-12T03:11:18;4.07;;;2.40;;
19301;SDS011;9785;59.362;12.152;2023-08-12T03:13:47;10.17;;;2.60;;
19301;SDS011;9785;59.362;12.152;2023-08-12T03:16:16;3.37;;;2.80;;
19301;SDS011;9785;59.362;12.152;2023-08-12T03:18:44;4.47;;;2.60;;
19301;SDS011;9785;59.362;12.152;2023-08-12T03:21:13;3.90;;;2.67;;
19301;SDS011;9785;59.362;12.152;2023-08-12T03:23:43;9.10;;;3.00;;
19301;SDS011;9785;59.362;12.152;2023-08-12T03:26:12;3.60;;;2.50;;
19301;SDS011;9785;59.362;12.152;2023-08-12T03:28:40;7.87;;;2.90;;
19301;SDS011;9785;59.362;12.152;2023-08-12T03:31:09;4.33;;;2.97;;
19301;SDS011;9785;59.362;12.152;2023-08-12T03:33:38;5.30;;;2.93;;
19301;SDS011;9785;59.362;12.152;2023-08-12T03:36:06;11.80;;;3.23;;
19301;SDS011;9785;59.362;12.152;2023-08-12T03:38:35;7.23;;;2.60;;
19301;SDS011;9785;59.362;12.152;2023-08-12T03:41:05;8.60;;;3.20;;
19301;SDS011;9785;59.362;12.152;2023-08-12T03:43:33;8.13;;;3.20;;
19301;SDS011;9785;59.362;12.152;2023-08-12T03:46:04;7.10;;;3.00;;
19301;SDS011;9785;59.362;12.152;2023-08-12T03:48:32;9.10;;;2.90;;
19301;SDS011;9785;59.362;12.152;2023-08-12T03:51:01;4.67;;;3.27;;
19301;SDS011;9785;59.362;12.152;2023-08-12T03:53:30;10.53;;;3.60;;
19301;SDS011;9785;59.362;12.152;2023-08-12T03:55:58;7.83;;;3.30;;
19301;SDS011;9785;59.362;12.152;2023-08-12T03:58:28;11.33;;;3.40;;
19301;SDS011;9785;59.362;12.152;2023-08-12T04:00:57;8.40;;;3.50;;
19301;SDS011;9785;59.362;12.152;2023-08-12T04:03:25;7.43;;;3.13;;
19301;SDS011;9785;59.362;12.152;2023-08-12T04:05:54;4.87;;;3.30;;
19301;SDS011;9785;59.362;12.152;2023-08-12T04:08:23;5.07;;;3.03;;
19301;SDS011;9785;59.362;12.152;2023-08-12T04:10:51;9.37;;;3.50;;
19301;SDS011;9785;59.362;12.152;2023-08-12T04:13:20;9.63;;;3.03;;
19301;SDS011;9785;59.362;12.152;2023-08-12T04:15:50;10.27;;;3.53;;
19301;SDS011;9785;59.362;12.152;2023-08-12T04:18:19;5.33;;;3.90;;
19301;SDS011;9785;59.362;12.152;2023-08-12T04:20:48;9.83;;;5.70;;
19301;SDS011;9785;59.362;12.152;2023-08-12T04:23:17;10.87;;;4.37;;
19301;SDS011;9785;59.362;12.152;2023-08-12T04:25:46;11.07;;;5.93;;
19301;SDS011;9785;59.362;12.152;2023-08-12T04:28:16;13.63;;;5.30;;
19301;SDS011;9785;59.362;12.152;2023-08-12T04:30:45;8.43;;;4.43;;
19301;SDS011;9785;59.362;12.152;2023-08-12T04:33:16;6.07;;;4.00;;
19301;SDS011;9785;59.362;12.152;2023-08-12T04:35:46;9.97;;;5.77;;
19301;SDS011;9785;59.362;12.152;2023-08-12T04:38:15;9.27;;;4.13;;
19301;SDS011;9785;59.362;12.152;2023-08-12T04:40:44;12.07;;;5.37;;
19301;SDS011;9785;59.362;12.152;2023-08-12T04:43:13;7.17;;;5.00;;
19301;SDS011;9785;59.362;12.152;2023-08-12T04:45:44;8.30;;;4.43;;
19301;SDS011;9785;59.362;12.152;2023-08-12T04:48:13;10.37;;;4.63;;
19301;SDS011;9785;59.362;12.152;2023-08-12T04:50:43;15.23;;;5.03;;
19301;SDS011;9785;59.362;12.152;2023-08-12T04:53:12;7.47;;;4.10;;
19301;SDS011;9785;59.362;12.152;2023-08-12T04:55:40;19.10;;;7.47;;
19301;SDS011;9785;59.362;12.152;2023-08-12T04:58:12;20.13;;;7.43;;
19301;SDS011;9785;59.362;12.152;2023-08-12T05:00:41;15.27;;;7.63;;
19301;SDS011;9785;59.362;12.152;2023-08-12T05:03:10;11.33;;;6.53;;
19301;SDS011;9785;59.362;12.152;2023-08-12T05:05:39;16.07;;;7.60;;
19301;SDS011;9785;59.362;12.152;2023-08-12T05:08:09;14.00;;;6.97;;
19301;SDS011;9785;59.362;12.152;2023-08-12T05:10:37;19.47;;;7.97;;
19301;SDS011;9785;59.362;12.152;2023-08-12T05:13:06;17.47;;;6.93;;
19301;SDS011;9785;59.362;12.152;2023-08-12T05:15:34;13.73;;;6.57;;
19301;SDS011;9785;59.362;12.152;2023-08-12T05:18:03;13.00;;;5.70;;
19301;SDS011;9785;59.362;12.152;2023-08-12T05:20:32;12.47;;;6.23;;
19301;SDS011;9785;59.362;12.152;2023-08-12T05:23:00;9.83;;;6.30;;
19301;SDS011;9785;59.362;12.152;2023-08-12T05:25:30;9.27;;;5.20;;
19301;SDS011;9785;59.362;12.152;2023-08-12T05:27:59;8.47;;;5.10;;
19301;SDS011;9785;59.362;12.152;2023-08-12T05:30:28;10.00;;;5.17;;
19301;SDS011;9785;59.362;12.152;2023-08-12T05:32:56;9.50;;;4.63;;
19301;SDS011;9785;59.362;12.152;2023-08-12T05:35:25;5.17;;;4.67;;
19301;SDS011;9785;59.362;12.152;2023-08-12T05:37:54;7.03;;;4.40;;
19301;SDS011;9785;59.362;12.152;2023-08-12T05:40:23;6.97;;;4.10;;
19301;SDS011;9785;59.362;12.152;2023-08-12T05:42:53;6.13;;;3.63;;
19301;SDS011;9785;59.362;12.152;2023-08-12T05:45:22;4.63;;;3.53;;
19301;SDS011;9785;59.362;12.152;2023-08-12T05:47:50;3.77;;;2.93;;
19301;SDS011;9785;59.362;12.152;2023-08-12T05:50:19;5.37;;;3.90;;
19301;SDS011;9785;59.362;12.152;2023-08-12T05:52:48;3.83;;;3.37;;
19301;SDS011;9785;59.362;12.152;2023-08-12T05:55:16;3.07;;;2.87;;
19301;SDS011;9785;59.362;12.152;2023-08-12T05:57:45;4.20;;;3.30;;
19301;SDS011;9785;59.362;12.152;2023-08-12T06:00:15;5.90;;;3.37;;
19301;SDS011;9785;59.362;12.152;2023-08-12T06:02:43;3.20;;;2.93;;
19301;SDS011;9785;59.362;12.152;2023-08-12T06:05:15;5.93;;;3.30;;
19301;SDS011;9785;59.362;12.152;2023-08-12T06:07:43;3.90;;;3.00;;
19301;SDS011;9785;59.362;12.152;2023-08-12T06:10:12;5.10;;;3.33;;
19301;SDS011;9785;59.362;12.152;2023-08-12T06:12:41;6.20;;;3.17;;
19301;SDS011;9785;59.362;12.152;2023-08-12T06:15:10;6.83;;;3.27;;
19301;SDS011;9785;59.362;12.152;2023-08-12T06:17:40;4.67;;;3.40;;
19301;SDS011;9785;59.362;12.152;2023-08-12T06:20:09;3.60;;;3.10;;
19301;SDS011;9785;59.362;12.152;2023-08-12T06:22:38;3.40;;;3.10;;
19301;SDS011;9785;59.362;12.152;2023-08-12T06:25:06;5.10;;;3.00;;
19301;SDS011;9785;59.362;12.152;2023-08-12T06:27:35;3.00;;;2.80;;
19301;SDS011;9785;59.362;12.152;2023-08-12T06:30:04;5.20;;;2.80;;
19301;SDS011;9785;59.362;12.152;2023-08-12T06:32:33;2.63;;;2.43;;
19301;SDS011;9785;59.362;12.152;2023-08-12T06:35:04;3.93;;;2.47;;
19301;SDS011;9785;59.362;12.152;2023-08-12T06:37:32;4.97;;;2.80;;
19301;SDS011;9785;59.362;12.152;2023-08-12T06:40:01;3.43;;;2.50;;
19301;SDS011;9785;59.362;12.152;2023-08-12T06:42:30;2.77;;;2.57;;
19301;SDS011;9785;59.362;12.152;2023-08-12T06:44:59;2.53;;;2.43;;
19301;SDS011;9785;59.362;12.152;2023-08-12T06:47:30;4.00;;;2.50;;
19301;SDS011;9785;59.362;12.152;2023-08-12T06:49:59;2.93;;;2.57;;
19301;SDS011;9785;59.362;12.152;2023-08-12T06:52:29;2.77;;;2.60;;
19301;SDS011;9785;59.362;12.152;2023-08-12T06:54:58;4.33;;;2.57;;
19301;SDS011;9785;59.362;12.152;2023-08-12T06:57:27;2.47;;;2.37;;
19301;SDS011;9785;59.362;12.152;2023-08-12T06:59:55;2.60;;;2.40;;
19301;SDS011;9785;59.362;12.152;2023-08-12T07:02:24;3.63;;;2.27;;
19301;SDS011;9785;59.362;12.152;2023-08-12T07:04:52;3.40;;;2.73;;
19301;SDS011;9785;59.362;12.152;2023-08-12T07:07:21;3.00;;;2.80;;
19301;SDS011;9785;59.362;12.152;2023-08-12T07:09:51;2.80;;;2.70;;
19301;SDS011;9785;59.362;12.152;2023-08-12T07:12:19;2.90;;;2.70;;
19301;SDS011;9785;59.362;12.152;2023-08-12T07:14:48;2.77;;;2.60;;
19301;SDS011;9785;59.362;12.152;2023-08-12T07:17:17;3.07;;;2.73;;
19301;SDS011;9785;59.362;12.152;2023-08-12T07:19:45;2.90;;;2.70;;
19301;SDS011;9785;59.362;12.152;2023-08-12T07:22:15;3.03;;;2.73;;
19301;SDS011;9785;59.362;12.152;2023-08-12T07:24:47;2.77;;;2.57;;
19301;SDS011;9785;59.362;12.152;2023-08-12T07:27:16;3.20;;;2.90;;
19301;SDS011;9785;59.362;12.152;2023-08-12T07:29:45;2.67;;;2.57;;
19301;SDS011;9785;59.362;12.152;2023-08-12T07:32:14;3.60;;;2.90;;
19301;SDS011;9785;59.362;12.152;2023-08-12T07:34:42;3.03;;;2.73;;
19301;SDS011;9785;59.362;12.152;2023-08-12T07:37:11;2.80;;;2.60;;
19301;SDS011;9785;59.362;12.152;2023-08-12T07:39:40;3.27;;;3.07;;
19301;SDS011;9785;59.362;12.152;2023-08-12T07:42:07;4.17;;;2.97;;
19301;SDS011;9785;59.362;12.152;2023-08-12T07:44:37;3.20;;;2.90;;
19301;SDS011;9785;59.362;12.152;2023-08-12T07:47:06;3.10;;;2.90;;
19301;SDS011;9785;59.362;12.152;2023-08-12T07:49:35;3.40;;;3.00;;
19301;SDS011;9785;59.362;12.152;2023-08-12T07:52:04;3.07;;;2.90;;
19301;SDS011;9785;59.362;12.152;2023-08-12T07:54:33;3.57;;;3.27;;
19301;SDS011;9785;59.362;12.152;2023-08-12T07:57:02;2.90;;;2.80;;
19301;SDS011;9785;59.362;12.152;2023-08-12T07:59:30;3.10;;;2.90;;
19301;SDS011;9785;59.362;12.152;2023-08-12T08:02:00;3.43;;;3.03;;
19301;SDS011;9785;59.362;12.152;2023-08-12T08:04:29;3.67;;;3.40;;
19301;SDS011;9785;59.362;12.152;2023-08-12T08:06:58;3.30;;;3.00;;
19301;SDS011;9785;59.362;12.152;2023-08-12T08:09:27;3.63;;;3.33;;
19301;SDS011;9785;59.362;12.152;2023-08-12T08:11:55;3.43;;;3.17;;
19301;SDS011;9785;59.362;12.152;2023-08-12T08:14:24;3.53;;;3.33;;
19301;SDS011;9785;59.362;12.152;2023-08-12T08:16:53;3.20;;;3.10;;
19301;SDS011;9785;59.362;12.152;2023-08-12T08:19:23;3.13;;;2.93;;
19301;SDS011;9785;59.362;12.152;2023-08-12T08:21:56;3.63;;;3.40;;
19301;SDS011;9785;59.362;12.152;2023-08-12T08:24:24;2.80;;;2.67;;
19301;SDS011;9785;59.362;12.152;2023-08-12T08:26:53;3.07;;;2.97;;
19301;SDS011;9785;59.362;12.152;2023-08-12T08:29:22;2.67;;;2.57;;
19301;SDS011;9785;59.362;12.152;2023-08-12T08:31:51;2.90;;;2.63;;
19301;SDS011;9785;59.362;12.152;2023-08-12T08:34:19;3.00;;;2.47;;
19301;SDS011;9785;59.362;12.152;2023-08-12T08:36:49;2.07;;;2.00;;
19301;SDS011;9785;59.362;12.152;2023-08-12T08:39:18;2.80;;;2.37;;
19301;SDS011;9785;59.362;12.152;2023-08-12T08:41:48;2.00;;;1.90;;
19301;SDS011;9785;59.362;12.152;2023-08-12T08:44:19;2.07;;;1.83;;
19301;SDS011;9785;59.362;12.152;2023-08-12T08:46:49;2.43;;;2.33;;
19301;SDS011;9785;59.362;12.152;2023-08-12T08:49:20;2.30;;;2.10;;
19301;SDS011;9785;59.362;12.152;2023-08-12T08:51:51;2.00;;;1.90;;
19301;SDS011;9785;59.362;12.152;2023-08-12T08:54:20;2.30;;;2.17;;
19301;SDS011;9785;59.362;12.152;2023-08-12T08:56:49;2.07;;;1.97;;
19301;SDS011;9785;59.362;12.152;2023-08-12T08:59:22;2.00;;;1.90;;
19301;SDS011;9785;59.362;12.152;2023-08-12T09:01:51;2.97;;;1.80;;
19301;SDS011;9785;59.362;12.152;2023-08-12T09:04:24;2.63;;;2.00;;
19301;SDS011;9785;59.362;12.152;2023-08-12T09:06:59;1.60;;;1.50;;
19301;SDS011;9785;59.362;12.152;2023-08-12T09:09:29;3.03;;;2.00;;
19301;SDS011;9785;59.362;12.152;2023-08-12T09:11:57;1.90;;;1.80;;
19301;SDS011;9785;59.362;12.152;2023-08-12T09:14:27;2.20;;;1.90;;
19301;SDS011;9785;59.362;12.152;2023-08-12T09:16:56;2.63;;;1.67;;
19301;SDS011;9785;59.362;12.152;2023-08-12T09:19:25;3.43;;;1.80;;
19301;SDS011;9785;59.362;12.152;2023-08-12T09:21:54;2.17;;;2.00;;
19301;SDS011;9785;59.362;12.152;2023-08-12T09:24:27;2.87;;;1.90;;
19301;SDS011;9785;59.362;12.152;2023-08-12T09:26:56;2.13;;;1.97;;
19301;SDS011;9785;59.362;12.152;2023-08-12T09:29:26;1.90;;;1.80;;
19301;SDS011;9785;59.362;12.152;2023-08-12T09:32:05;1.83;;;1.73;;
19301;SDS011;9785;59.362;12.152;2023-08-12T09:34:34;2.67;;;2.00;;
19301;SDS011;9785;59.362;12.152;2023-08-12T09:37:03;4.07;;;1.93;;
19301;SDS011;9785;59.362;12.152;2023-08-12T09:39:34;1.97;;;1.87;;
19301;SDS011;9785;59.362;12.152;2023-08-12T09:42:03;3.47;;;1.93;;
19301;SDS011;9785;59.362;12.152;2023-08-12T09:44:34;3.20;;;2.10;;
19301;SDS011;9785;59.362;12.152;2023-08-12T09:47:03;2.90;;;2.00;;
19301;SDS011;9785;59.362;12.152;2023-08-12T09:49:31;2.70;;;1.97;;
19301;SDS011;9785;59.362;12.152;2023-08-12T09:52:00;1.80;;;1.70;;
19301;SDS011;9785;59.362;12.152;2023-08-12T09:54:30;2.37;;;1.50;;
19301;SDS011;9785;59.362;12.152;2023-08-12T09:57:01;3.93;;;1.50;;
19301;SDS011;9785;59.362;12.152;2023-08-12T09:59:30;2.83;;;1.40;;
19301;SDS011;9785;59.362;12.152;2023-08-12T10:02:01;1.50;;;1.40;;
19301;SDS011;9785;59.362;12.152;2023-08-12T10:04:34;2.33;;;1.47;;
19301;SDS011;9785;59.362;12.152;2023-08-12T10:07:03;1.83;;;1.63;;
19301;SDS011;9785;59.362;12.152;2023-08-12T10:09:33;2.20;;;1.70;;
19301;SDS011;9785;59.362;12.152;2023-08-12T10:12:06;2.27;;;1.60;;
19301;SDS011;9785;59.362;12.152;2023-08-12T10:14:36;3.57;;;1.50;;
19301;SDS011;9785;59.362;12.152;2023-08-12T10:17:05;1.40;;;1.30;;
19301;SDS011;9785;59.362;12.152;2023-08-12T10:19:35;1.50;;;1.40;;
19301;SDS011;9785;59.362;12.152;2023-08-12T10:22:04;2.23;;;1.10;;
19301;SDS011;9785;59.362;12.152;2023-08-12T10:24:33;3.70;;;1.50;;
19301;SDS011;9785;59.362;12.152;2023-08-12T10:27:02;1.53;;;1.43;;
19301;SDS011;9785;59.362;12.152;2023-08-12T10:29:33;1.60;;;1.50;;
19301;SDS011;9785;59.362;12.152;2023-08-12T10:32:03;1.30;;;1.30;;
19301;SDS011;9785;59.362;12.152;2023-08-12T10:34:31;2.10;;;1.50;;
19301;SDS011;9785;59.362;12.152;2023-08-12T10:37:01;1.43;;;1.30;;
19301;SDS011;9785;59.362;12.152;2023-08-12T10:39:31;2.20;;;1.50;;
19301;SDS011;9785;59.362;12.152;2023-08-12T10:42:00;1.20;;;1.20;;
19301;SDS011;9785;59.362;12.152;2023-08-12T10:44:38;1.57;;;1.37;;
19301;SDS011;9785;59.362;12.152;2023-08-12T10:47:07;2.23;;;1.50;;
19301;SDS011;9785;59.362;12.152;2023-08-12T10:49:42;1.20;;;1.20;;
19301;SDS011;9785;59.362;12.152;2023-08-12T10:52:19;1.40;;;1.30;;
19301;SDS011;9785;59.362;12.152;2023-08-12T10:54:54;2.00;;;1.40;;
19301;SDS011;9785;59.362;12.152;2023-08-12T10:57:34;2.43;;;1.20;;
19301;SDS011;9785;59.362;12.152;2023-08-12T11:00:07;1.73;;;1.20;;
19301;SDS011;9785;59.362;12.152;2023-08-12T11:02:39;1.53;;;1.30;;
19301;SDS011;9785;59.362;12.152;2023-08-12T11:05:09;2.93;;;1.37;;
19301;SDS011;9785;59.362;12.152;2023-08-12T11:07:38;3.27;;;1.33;;
19301;SDS011;9785;59.362;12.152;2023-08-12T11:10:10;1.53;;;1.37;;
19301;SDS011;9785;59.362;12.152;2023-08-12T11:12:40;1.50;;;1.40;;
19301;SDS011;9785;59.362;12.152;2023-08-12T11:15:10;2.80;;;1.60;;
19301;SDS011;9785;59.362;12.152;2023-08-12T11:17:39;1.60;;;1.50;;
19301;SDS011;9785;59.362;12.152;2023-08-12T11:20:09;1.53;;;1.43;;
19301;SDS011;9785;59.362;12.152;2023-08-12T11:22:38;2.30;;;1.40;;
19301;SDS011;9785;59.362;12.152;2023-08-12T11:25:07;2.63;;;1.50;;
19301;SDS011;9785;59.362;12.152;2023-08-12T11:27:37;2.67;;;1.40;;
19301;SDS011;9785;59.362;12.152;2023-08-12T11:30:06;1.67;;;1.57;;
19301;SDS011;9785;59.362;12.152;2023-08-12T11:32:36;2.93;;;1.50;;
19301;SDS011;9785;59.362;12.152;2023-08-12T11:35:05;2.22;;;1.52;;
19301;SDS011;9785;59.362;12.152;2023-08-12T11:37:35;2.05;;;1.48;;
19301;SDS011;9785;59.362;12.152;2023-08-12T11:40:05;1.60;;;1.50;;
19301;SDS011;9785;59.362;12.152;2023-08-12T11:42:36;4.77;;;1.80;;
19301;SDS011;9785;59.362;12.152;2023-08-12T11:45:06;2.70;;;1.80;;
19301;SDS011;9785;59.362;12.152;2023-08-12T11:47:37;1.85;;;1.70;;
19301;SDS011;9785;59.362;12.152;2023-08-12T11:50:07;4.97;;;1.63;;
19301;SDS011;9785;59.362;12.152;2023-08-12T11:52:36;3.73;;;1.80;;
19301;SDS011;9785;59.362;12.152;2023-08-12T11:55:05;2.63;;;1.87;;
19301;SDS011;9785;59.362;12.152;2023-08-12T11:57:34;5.03;;;1.93;;
19301;SDS011;9785;59.362;12.152;2023-08-12T12:00:07;3.47;;;2.00;;
19301;SDS011;9785;59.362;12.152;2023-08-12T12:02:45;5.50;;;1.80;;
19301;SDS011;9785;59.362;12.152;2023-08-12T12:05:15;3.07;;;1.83;;
19301;SDS011;9785;59.362;12.152;2023-08-12T12:07:48;2.77;;;2.20;;
19301;SDS011;9785;59.362;12.152;2023-08-12T12:10:17;4.47;;;1.87;;
19301;SDS011;9785;59.362;12.152;2023-08-12T12:12:47;4.20;;;1.90;;
19301;SDS011;9785;59.362;12.152;2023-08-12T12:15:16;1.87;;;1.70;;
19301;SDS011;9785;59.362;12.152;2023-08-12T12:17:46;3.70;;;1.73;;
19301;SDS011;9785;59.362;12.152;2023-08-12T12:20:15;2.43;;;1.73;;
19301;SDS011;9785;59.362;12.152;2023-08-12T12:22:44;2.20;;;1.50;;
19301;SDS011;9785;59.362;12.152;2023-08-12T12:25:14;2.50;;;1.60;;
19301;SDS011;9785;59.362;12.152;2023-08-12T12:27:45;2.70;;;1.47;;
19301;SDS011;9785;59.362;12.152;2023-08-12T12:30:15;3.00;;;1.67;;
19301;SDS011;9785;59.362;12.152;2023-08-12T12:32:46;3.25;;;1.73;;
19301;SDS011;9785;59.362;12.152;2023-08-12T12:35:15;4.63;;;1.90;;
19301;SDS011;9785;59.362;12.152;2023-08-12T12:37:44;2.22;;;1.65;;
19301;SDS011;9785;59.362;12.152;2023-08-12T12:40:12;3.20;;;1.50;;
19301;SDS011;9785;59.362;12.152;2023-08-12T12:42:41;2.05;;;1.58;;
19301;SDS011;9785;59.362;12.152;2023-08-12T12:45:10;3.58;;;1.80;;
19301;SDS011;9785;59.362;12.152;2023-08-12T12:47:38;2.50;;;1.65;;
19301;SDS011;9785;59.362;12.152;2023-08-12T12:50:09;1.90;;;1.60;;
19301;SDS011;9785;59.362;12.152;2023-08-12T12:52:37;3.17;;;1.40;;
19301;SDS011;9785;59.362;12.152;2023-08-12T12:55:08;4.40;;;1.70;;
19301;SDS011;9785;59.362;12.152;2023-08-12T12:57:37;1.70;;;1.60;;
19301;SDS011;9785;59.362;12.152;2023-08-12T13:00:06;2.97;;;1.88;;
19301;SDS011;9785;59.362;12.152;2023-08-12T13:02:38;2.40;;;1.55;;
19301;SDS011;9785;59.362;12.152;2023-08-12T13:05:08;3.67;;;1.80;;
19301;SDS011;9785;59.362;12.152;2023-08-12T13:07:37;4.72;;;1.55;;
19301;SDS011;9785;59.362;12.152;2023-08-12T13:10:06;2.30;;;1.50;;
19301;SDS011;9785;59.362;12.152;2023-08-12T13:12:35;1.58;;;1.48;;
19301;SDS011;9785;59.362;12.152;2023-08-12T13:15:04;3.45;;;1.70;;
19301;SDS011;9785;59.362;12.152;2023-08-12T13:17:33;3.70;;;1.55;;
19301;SDS011;9785;59.362;12.152;2023-08-12T13:20:02;3.88;;;1.55;;
19301;SDS011;9785;59.362;12.152;2023-08-12T13:22:33;3.22;;;1.60;;
19301;SDS011;9785;59.362;12.152;2023-08-12T13:25:02;4.53;;;1.70;;
19301;SDS011;9785;59.362;12.152;2023-08-12T13:27:31;4.97;;;1.92;;
19301;SDS011;9785;59.362;12.152;2023-08-12T13:29:59;5.32;;;1.63;;
19301;SDS011;9785;59.362;12.152;2023-08-12T13:32:28;3.30;;;1.70;;
19301;SDS011;9785;59.362;12.152;2023-08-12T13:34:57;2.75;;;1.52;;
19301;SDS011;9785;59.362;12.152;2023-08-12T13:37:26;2.33;;;1.50;;
19301;SDS011;9785;59.362;12.152;2023-08-12T13:39:56;1.60;;;1.50;;
19301;SDS011;9785;59.362;12.152;2023-08-12T13:42:24;1.98;;;1.65;;
19301;SDS011;9785;59.362;12.152;2023-08-12T13:44:53;4.95;;;1.63;;
19301;SDS011;9785;59.362;12.152;2023-08-12T13:47:26;5.38;;;1.60;;
19301;SDS011;9785;59.362;12.152;2023-08-12T13:49:54;6.60;;;1.50;;
19301;SDS011;9785;59.362;12.152;2023-08-12T13:52:23;7.05;;;1.60;;
19301;SDS011;9785;59.362;12.152;2023-08-12T13:54:52;5.63;;;1.85;;
19301;SDS011;9785;59.362;12.152;2023-08-12T13:57:22;2.83;;;1.75;;
19301;SDS011;9785;59.362;12.152;2023-08-12T13:59:50;3.83;;;1.60;;
19301;SDS011;9785;59.362;12.152;2023-08-12T14:02:19;4.10;;;1.50;;
19301;SDS011;9785;59.362;12.152;2023-08-12T14:04:48;5.05;;;1.80;;
19301;SDS011;9785;59.362;12.152;2023-08-12T14:07:16;2.70;;;1.58;;
19301;SDS011;9785;59.362;12.152;2023-08-12T14:09:46;5.18;;;1.95;;
19301;SDS011;9785;59.362;12.152;2023-08-12T14:12:15;4.15;;;1.85;;
19301;SDS011;9785;59.362;12.152;2023-08-12T14:14:45;3.63;;;1.70;;
19301;SDS011;9785;59.362;12.152;2023-08-12T14:17:14;3.35;;;1.75;;
19301;SDS011;9785;59.362;12.152;2023-08-12T14:19:48;2.60;;;1.73;;
19301;SDS011;9785;59.362;12.152;2023-08-12T14:22:17;5.60;;;1.77;;
19301;SDS011;9785;59.362;12.152;2023-08-12T14:24:46;4.38;;;1.92;;
19301;SDS011;9785;59.362;12.152;2023-08-12T14:27:15;2.80;;;1.52;;
19301;SDS011;9785;59.362;12.152;2023-08-12T14:29:46;4.85;;;1.67;;
19301;SDS011;9785;59.362;12.152;2023-08-12T14:32:15;3.13;;;1.40;;
19301;SDS011;9785;59.362;12.152;2023-08-12T14:34:45;5.15;;;1.70;;
19301;SDS011;9785;59.362;12.152;2023-08-12T14:37:14;3.80;;;1.75;;
19301;SDS011;9785;59.362;12.152;2023-08-12T14:39:42;3.65;;;1.60;;
19301;SDS011;9785;59.362;12.152;2023-08-12T14:42:11;3.00;;;1.50;;
19301;SDS011;9785;59.362;12.152;2023-08-12T14:44:40;2.97;;;1.67;;
19301;SDS011;9785;59.362;12.152;2023-08-12T14:47:10;2.40;;;1.67;;
19301;SDS011;9785;59.362;12.152;2023-08-12T14:49:39;4.30;;;1.83;;
19301;SDS011;9785;59.362;12.152;2023-08-12T14:52:14;5.32;;;1.80;;
19301;SDS011;9785;59.362;12.152;2023-08-12T14:54:43;4.57;;;1.80;;
19301;SDS011;9785;59.362;12.152;2023-08-12T14:57:12;4.50;;;1.70;;
19301;SDS011;9785;59.362;12.152;2023-08-12T14:59:40;3.60;;;1.63;;
19301;SDS011;9785;59.362;12.152;2023-08-12T15:02:10;2.70;;;1.88;;